Hakuryoumaru No.15 — JD2439 — position and weather

sailwx.info

Track history (hours):
 
Tides and Currents Weather Stations Pressure Air Temp Water Temp Dewpoint Dewpoint Depression Visibility Wind Speed Wind Dir Waves Ship Positions

Hakuryoumaru No.15

Last reported at 2017-Apr-25 06:58 UTC. Time now 2017-Apr-25 14:32 UTC.
Position N 34°53' E 139°49'.

Length 80 m; draft 5 m.

Type: Tanker. MMSI: 431000243.

Date/timePositionNaut miles runAvg speedWind from/ knotsBaromVisibWave heightAir tempDewpointWater temp
2017-Apr-25 06:58N 34°53' E 139°49'611.7
2017-Apr-25 06:29N 34°57' E 139°44'611.6
2017-Apr-25 06:00N 35°02' E 139°44'612.5
2017-Apr-25 05:30N 35°08' E 139°45'611.9
2017-Apr-25 05:00N 35°14' E 139°46'510.9
2017-Apr-25 04:30N 35°19' E 139°43'510.9
2017-Apr-25 04:00N 35°25' E 139°43'611.6
2017-Apr-25 03:30N 35°29' E 139°48'2 3.7
2017-Apr-25 03:00N 35°31' E 139°46'0 0.0
2017-Apr-25 00:01N 35°31' E 139°46'0 0.4
2017-Apr-25 00:00N 35°31' E 139°46'0 0.7
2017-Apr-24 23:30N 35°30' E 139°46'0 0.0
2017-Apr-24 06:14N 35°30' E 139°46'0 1.0
2017-Apr-24 06:00N 35°30' E 139°46'510.1
2017-Apr-24 05:30N 35°25' E 139°47'713.1
2017-Apr-24 05:00N 35°19' E 139°44'713.0
2017-Apr-24 04:30N 35°13' E 139°47'612.9
2017-Apr-24 04:00N 35°07' E 139°43'713.0
2017-Apr-24 03:29N 35°02' E 139°38'23310.9
2017-Apr-23 06:06N 34°06' E 135°04'212.2
2017-Apr-23 05:56N 34°08' E 135°06'1 0.1
2017-Apr-22 09:46N 34°07' E 135°07'222 9.6
2017-Apr-21 10:42N 35°00' E 139°28'311.6
2017-Apr-21 10:27N 35°02' E 139°32'512.0
2017-Apr-21 10:00N 35°04' E 139°37'612.1
2017-Apr-21 09:30N 35°08' E 139°43'612.4
2017-Apr-21 09:00N 35°14' E 139°46'612.6
2017-Apr-21 08:30N 35°19' E 139°43'611.7
2017-Apr-21 08:00N 35°25' E 139°44'611.5
2017-Apr-21 07:30N 35°30' E 139°47'1 0.1
2017-Apr-21 00:13N 35°31' E 139°46'0 0.5
2017-Apr-21 00:00N 35°31' E 139°46'2 4.4
2017-Apr-20 23:30N 35°29' E 139°48'0 0.0
2017-Apr-20 23:00N 35°29' E 139°48'0 0.0
2017-Apr-20 22:30N 35°29' E 139°48'0 0.0
2017-Apr-20 21:57N 35°29' E 139°48'0 0.0
2017-Apr-20 21:27N 35°29' E 139°48'0 0.0
2017-Apr-20 20:57N 35°29' E 139°48'0 0.0
2017-Apr-20 20:30N 35°29' E 139°48'0 0.0
2017-Apr-20 20:00N 35°29' E 139°48'0 0.0
2017-Apr-20 19:30N 35°29' E 139°48'0 0.0
2017-Apr-20 19:00N 35°29' E 139°48'0 0.0
2017-Apr-20 18:30N 35°29' E 139°48'0 0.0
2017-Apr-20 18:00N 35°29' E 139°48'0 0.0
2017-Apr-20 17:27N 35°29' E 139°48'0 0.0
2017-Apr-20 17:00N 35°29' E 139°48'3 5.9
2017-Apr-20 16:30N 35°26' E 139°47'713.2
2017-Apr-20 16:00N 35°20' E 139°44'612.7
2017-Apr-20 15:30N 35°14' E 139°47'612.7
2017-Apr-20 15:00N 35°08' E 139°45'713.1
2017-Apr-20 14:29N 35°04' E 139°38'  
2017-Apr-16 01:35N 34°58' E 139°21'111.7
2017-Apr-16 01:29N 34°58' E 139°22'511.4
2017-Apr-16 01:00N 35°01' E 139°28'611.9
2017-Apr-16 00:30N 35°04' E 139°34'612.4
2017-Apr-16 00:00N 35°07' E 139°41'612.2
2017-Apr-15 23:30N 35°11' E 139°46'612.3
2017-Apr-15 23:00N 35°18' E 139°45'612.2
2017-Apr-15 22:30N 35°23' E 139°42'612.4
2017-Apr-15 22:00N 35°28' E 139°48'4 7.8
2017-Apr-15 21:30N 35°31' E 139°50'0 0.0
2017-Apr-15 20:37N 35°31' E 139°50'0 0.0
2017-Apr-15 20:28N 35°31' E 139°50'0 0.0
2017-Apr-15 19:49N 35°31' E 139°50'0 0.0
2017-Apr-15 19:25N 35°31' E 139°50'0 0.0
2017-Apr-15 18:58N 35°31' E 139°50'0 0.0
2017-Apr-15 18:16N 35°31' E 139°50'0 0.0
2017-Apr-15 17:37N 35°31' E 139°50'0 0.0
2017-Apr-15 17:28N 35°31' E 139°50'0 0.0
2017-Apr-15 16:58N 35°31' E 139°50'0 0.0
2017-Apr-15 16:28N 35°31' E 139°50'0 0.0
2017-Apr-15 15:55N 35°31' E 139°50'0 0.0
2017-Apr-15 15:28N 35°31' E 139°50'0 0.0
2017-Apr-15 14:55N 35°31' E 139°50'0 0.1
2017-Apr-15 14:19N 35°31' E 139°50'0 0.1
2017-Apr-15 13:25N 35°31' E 139°51'0 0.0
2017-Apr-15 13:00N 35°31' E 139°51'0 0.0
2017-Apr-15 12:29N 35°31' E 139°51'0 0.0
2017-Apr-15 11:59N 35°31' E 139°51'0 0.0
2017-Apr-15 10:22N 35°31' E 139°50'0 0.0
2017-Apr-15 08:56N 35°31' E 139°50'0 0.0
2017-Apr-15 08:29N 35°31' E 139°50'0 0.0
2017-Apr-15 08:00N 35°31' E 139°50'0 0.0
2017-Apr-15 07:18N 35°31' E 139°50'0 0.0
2017-Apr-15 06:59N 35°31' E 139°50'  
Track history (hours):
 
Tides and Currents Weather Stations Pressure Air Temp Water Temp Dewpoint Dewpoint Depression Visibility Wind Speed Wind Dir Waves Ship Positions

Hakuryoumaru No.15

Last reported at 2017-Apr-25 06:58 UTC. Time now 2017-Apr-25 14:32 UTC.
Position N 34°53' E 139°49'.

Length 80 m; draft 5 m.

Type: Tanker. MMSI: 431000243.

Date/timePositionNaut miles runAvg speedWind from/ knotsBaromVisibWave heightAir tempDewpointWater temp
2017-Apr-25 06:58N 34°53' E 139°49'611.7
2017-Apr-25 06:29N 34°57' E 139°44'611.6
2017-Apr-25 06:00N 35°02' E 139°44'612.5
2017-Apr-25 05:30N 35°08' E 139°45'611.9
2017-Apr-25 05:00N 35°14' E 139°46'510.9
2017-Apr-25 04:30N 35°19' E 139°43'510.9
2017-Apr-25 04:00N 35°25' E 139°43'611.6
2017-Apr-25 03:30N 35°29' E 139°48'2 3.7
2017-Apr-25 03:00N 35°31' E 139°46'0 0.0
2017-Apr-25 00:01N 35°31' E 139°46'0 0.4
2017-Apr-25 00:00N 35°31' E 139°46'0 0.7
2017-Apr-24 23:30N 35°30' E 139°46'0 0.0
2017-Apr-24 06:14N 35°30' E 139°46'0 1.0
2017-Apr-24 06:00N 35°30' E 139°46'510.1
2017-Apr-24 05:30N 35°25' E 139°47'713.1
2017-Apr-24 05:00N 35°19' E 139°44'713.0
2017-Apr-24 04:30N 35°13' E 139°47'612.9
2017-Apr-24 04:00N 35°07' E 139°43'713.0
2017-Apr-24 03:29N 35°02' E 139°38'23310.9
2017-Apr-23 06:06N 34°06' E 135°04'212.2
2017-Apr-23 05:56N 34°08' E 135°06'1 0.1
2017-Apr-22 09:46N 34°07' E 135°07'222 9.6
2017-Apr-21 10:42N 35°00' E 139°28'311.6
2017-Apr-21 10:27N 35°02' E 139°32'512.0
2017-Apr-21 10:00N 35°04' E 139°37'612.1
2017-Apr-21 09:30N 35°08' E 139°43'612.4
2017-Apr-21 09:00N 35°14' E 139°46'612.6
2017-Apr-21 08:30N 35°19' E 139°43'611.7
2017-Apr-21 08:00N 35°25' E 139°44'611.5
2017-Apr-21 07:30N 35°30' E 139°47'1 0.1
2017-Apr-21 00:13N 35°31' E 139°46'0 0.5
2017-Apr-21 00:00N 35°31' E 139°46'2 4.4
2017-Apr-20 23:30N 35°29' E 139°48'0 0.0
2017-Apr-20 23:00N 35°29' E 139°48'0 0.0
2017-Apr-20 22:30N 35°29' E 139°48'0 0.0
2017-Apr-20 21:57N 35°29' E 139°48'0 0.0
2017-Apr-20 21:27N 35°29' E 139°48'0 0.0
2017-Apr-20 20:57N 35°29' E 139°48'0 0.0
2017-Apr-20 20:30N 35°29' E 139°48'0 0.0
2017-Apr-20 20:00N 35°29' E 139°48'0 0.0
2017-Apr-20 19:30N 35°29' E 139°48'0 0.0
2017-Apr-20 19:00N 35°29' E 139°48'0 0.0
2017-Apr-20 18:30N 35°29' E 139°48'0 0.0
2017-Apr-20 18:00N 35°29' E 139°48'0 0.0
2017-Apr-20 17:27N 35°29' E 139°48'0 0.0
2017-Apr-20 17:00N 35°29' E 139°48'3 5.9
2017-Apr-20 16:30N 35°26' E 139°47'713.2
2017-Apr-20 16:00N 35°20' E 139°44'612.7
2017-Apr-20 15:30N 35°14' E 139°47'612.7
2017-Apr-20 15:00N 35°08' E 139°45'713.1
2017-Apr-20 14:29N 35°04' E 139°38'  
2017-Apr-16 01:35N 34°58' E 139°21'111.7
2017-Apr-16 01:29N 34°58' E 139°22'511.4
2017-Apr-16 01:00N 35°01' E 139°28'611.9
2017-Apr-16 00:30N 35°04' E 139°34'612.4
2017-Apr-16 00:00N 35°07' E 139°41'612.2
2017-Apr-15 23:30N 35°11' E 139°46'612.3
2017-Apr-15 23:00N 35°18' E 139°45'612.2
2017-Apr-15 22:30N 35°23' E 139°42'612.4
2017-Apr-15 22:00N 35°28' E 139°48'4 7.8
2017-Apr-15 21:30N 35°31' E 139°50'0 0.0
2017-Apr-15 20:37N 35°31' E 139°50'0 0.0
2017-Apr-15 20:28N 35°31' E 139°50'0 0.0
2017-Apr-15 19:49N 35°31' E 139°50'0 0.0
2017-Apr-15 19:25N 35°31' E 139°50'0 0.0
2017-Apr-15 18:58N 35°31' E 139°50'0 0.0
2017-Apr-15 18:16N 35°31' E 139°50'0 0.0
2017-Apr-15 17:37N 35°31' E 139°50'0 0.0
2017-Apr-15 17:28N 35°31' E 139°50'0 0.0
2017-Apr-15 16:58N 35°31' E 139°50'0 0.0
2017-Apr-15 16:28N 35°31' E 139°50'0 0.0
2017-Apr-15 15:55N 35°31' E 139°50'0 0.0
2017-Apr-15 15:28N 35°31' E 139°50'0 0.0
2017-Apr-15 14:55N 35°31' E 139°50'0 0.1
2017-Apr-15 14:19N 35°31' E 139°50'0 0.1
2017-Apr-15 13:25N 35°31' E 139°51'0 0.0
2017-Apr-15 13:00N 35°31' E 139°51'0 0.0
2017-Apr-15 12:29N 35°31' E 139°51'0 0.0
2017-Apr-15 11:59N 35°31' E 139°51'0 0.0
2017-Apr-15 10:22N 35°31' E 139°50'0 0.0
2017-Apr-15 08:56N 35°31' E 139°50'0 0.0
2017-Apr-15 08:29N 35°31' E 139°50'0 0.0
2017-Apr-15 08:00N 35°31' E 139°50'0 0.0
2017-Apr-15 07:18N 35°31' E 139°50'0 0.0
2017-Apr-15 06:59N 35°31' E 139°50'  

Dump ship's entire track history